createdAt,value
2023-02-28T00:00:11.549Z,47.27
2023-02-28T00:02:42.481Z,66.17
2023-02-28T00:05:12.482Z,71.70
2023-02-28T00:07:41.390Z,46.43
2023-02-28T00:10:12.222Z,50.20
2023-02-28T00:12:40.806Z,39.27
2023-02-28T00:15:10.683Z,31.73
2023-02-28T00:17:41.464Z,37.43
2023-02-28T00:20:13.016Z,43.10
2023-02-28T00:22:42.857Z,37.37
2023-02-28T00:25:13.003Z,37.97
2023-02-28T00:27:42.277Z,36.90
2023-02-28T00:30:14.146Z,37.77
2023-02-28T00:32:44.456Z,31.20
2023-02-28T00:35:13.725Z,34.30
2023-02-28T00:37:42.371Z,34.77
2023-02-28T00:40:13.302Z,31.33
2023-02-28T00:42:42.458Z,54.20
2023-02-28T00:45:11.832Z,58.33
2023-02-28T00:47:40.355Z,45.60
2023-02-28T00:50:12.912Z,40.47
2023-02-28T00:52:41.362Z,34.47
2023-02-28T00:55:11.231Z,35.00
2023-02-28T00:57:40.268Z,35.73
2023-02-28T01:00:10.875Z,36.73
2023-02-28T01:02:39.434Z,33.53
2023-02-28T01:05:10.563Z,31.03
2023-02-28T01:07:39.546Z,33.60
2023-02-28T01:10:08.942Z,33.57
2023-02-28T01:12:37.378Z,39.27
2023-02-28T01:15:06.778Z,35.50
2023-02-28T01:17:35.350Z,33.90
2023-02-28T01:20:04.546Z,35.67
2023-02-28T01:22:34.546Z,35.23
2023-02-28T01:25:03.075Z,37.57
2023-02-28T01:27:31.551Z,33.07
2023-02-28T01:30:00.039Z,36.00
2023-02-28T01:32:28.666Z,36.70
2023-02-28T01:34:57.511Z,35.73
2023-02-28T01:37:26.180Z,35.40
2023-02-28T01:39:56.248Z,35.63
2023-02-28T01:42:25.317Z,38.33
2023-02-28T01:45:03.943Z,39.03
2023-02-28T01:47:39.066Z,46.57
2023-02-28T01:50:12.049Z,44.83
2023-02-28T01:52:40.976Z,41.87
2023-02-28T01:55:15.053Z,40.23
2023-02-28T01:57:50.490Z,43.13
2023-02-28T02:00:22.545Z,53.60
2023-02-28T02:02:53.766Z,44.53
2023-02-28T02:05:24.223Z,46.13
2023-02-28T02:07:56.748Z,51.50
2023-02-28T02:10:33.794Z,47.87
2023-02-28T02:13:16.728Z,46.80
2023-02-28T02:15:54.260Z,37.17
2023-02-28T02:18:33.663Z,33.07
2023-02-28T02:21:30.834Z,34.47
2023-02-28T02:24:30.703Z,42.53
2023-02-28T02:27:21.212Z,40.27
2023-02-28T02:30:22.965Z,40.97
2023-02-28T02:33:11.453Z,59.07
2023-02-28T02:35:47.662Z,54.17
2023-02-28T02:38:21.717Z,55.93
2023-02-28T02:40:56.595Z,59.93
2023-02-28T02:43:31.559Z,48.27
2023-02-28T02:46:05.776Z,48.50
2023-02-28T02:48:36.688Z,44.30
2023-02-28T02:51:13.167Z,39.53
2023-02-28T02:53:47.473Z,38.47
2023-02-28T02:56:17.614Z,38.87
2023-02-28T02:58:47.377Z,33.60
2023-02-28T03:01:29.151Z,32.03
2023-02-28T03:04:01.021Z,32.83
2023-02-28T03:06:31.254Z,38.53
2023-02-28T03:08:59.710Z,45.13
2023-02-28T03:11:28.900Z,40.53
2023-02-28T03:14:15.352Z,37.23
2023-02-28T03:17:02.431Z,36.23
2023-02-28T03:19:50.424Z,38.17
2023-02-28T03:22:34.267Z,35.40
2023-02-28T03:25:08.792Z,38.30
2023-02-28T03:27:44.338Z,34.23
2023-02-28T03:30:22.693Z,36.77
2023-02-28T03:32:57.981Z,33.83
2023-02-28T03:35:30.258Z,34.00
2023-02-28T03:38:06.222Z,33.30
2023-02-28T03:40:37.056Z,32.60
2023-02-28T03:43:14.666Z,35.90
2023-02-28T03:45:45.723Z,36.60
2023-02-28T03:48:19.773Z,38.90
2023-02-28T03:50:51.767Z,30.50
2023-02-28T03:53:28.179Z,30.77
2023-02-28T03:56:00.415Z,31.27
2023-02-28T03:58:35.753Z,31.33
2023-02-28T04:01:10.320Z,27.10
2023-02-28T04:03:39.784Z,29.27
2023-02-28T04:06:15.648Z,27.17
2023-02-28T04:08:45.555Z,29.47
2023-02-28T04:11:26.760Z,31.13
2023-02-28T04:13:55.440Z,29.07
2023-02-28T04:16:34.420Z,25.20
2023-02-28T04:19:06.361Z,24.20
2023-02-28T04:21:37.178Z,22.13
2023-02-28T04:24:08.121Z,26.27
2023-02-28T04:26:39.049Z,25.20
2023-02-28T04:29:09.074Z,23.07
2023-02-28T04:31:37.717Z,25.90
2023-02-28T04:34:06.794Z,31.37
2023-02-28T04:36:35.513Z,27.90
2023-02-28T04:39:05.262Z,32.93
2023-02-28T04:41:35.393Z,28.00
2023-02-28T04:44:04.170Z,20.97
2023-02-28T04:46:33.093Z,27.93
2023-02-28T04:49:01.571Z,23.83
2023-02-28T04:51:30.523Z,30.33
2023-02-28T04:53:59.340Z,27.80
2023-02-28T04:56:27.934Z,23.67
2023-02-28T04:58:57.952Z,32.87
2023-02-28T05:01:29.137Z,44.40
2023-02-28T05:03:59.791Z,44.67
2023-02-28T05:06:31.199Z,37.50
2023-02-28T05:09:00.014Z,38.90
2023-02-28T05:11:35.706Z,31.37
2023-02-28T05:14:07.611Z,28.63
2023-02-28T05:16:36.207Z,25.63
2023-02-28T05:19:05.169Z,26.70
2023-02-28T05:21:35.223Z,24.50
2023-02-28T05:24:06.300Z,22.03
2023-02-28T05:26:37.757Z,26.23
2023-02-28T05:29:08.207Z,31.37
2023-02-28T05:31:37.013Z,27.77
2023-02-28T05:34:06.160Z,30.40
2023-02-28T05:36:35.136Z,27.97
2023-02-28T05:39:04.891Z,30.37
2023-02-28T05:41:33.496Z,26.10
2023-02-28T05:44:02.546Z,28.33
2023-02-28T05:46:32.463Z,32.73
2023-02-28T05:49:02.186Z,33.93
2023-02-28T05:51:31.543Z,26.93
2023-02-28T05:54:03.864Z,24.47
2023-02-28T05:56:32.341Z,34.60
2023-02-28T05:59:00.821Z,26.23
2023-02-28T06:01:36.341Z,33.73
2023-02-28T06:04:06.724Z,26.97
2023-02-28T06:06:37.536Z,31.93
2023-02-28T06:09:06.240Z,35.03
2023-02-28T06:11:35.335Z,29.20
2023-02-28T06:14:05.680Z,31.00
2023-02-28T06:16:37.098Z,30.90
2023-02-28T06:19:06.783Z,31.10
2023-02-28T06:21:35.521Z,62.97
2023-02-28T06:24:05.047Z,50.40
2023-02-28T06:26:33.737Z,81.80
2023-02-28T06:29:02.827Z,79.87
2023-02-28T06:31:31.674Z,76.17
2023-02-28T06:34:01.844Z,69.37
2023-02-28T06:36:30.578Z,101.53
2023-02-28T06:38:58.988Z,94.63
2023-02-28T06:41:29.776Z,78.57
2023-02-28T06:43:59.884Z,66.17
2023-02-28T06:46:28.740Z,56.07
2023-02-28T06:48:57.317Z,43.47
2023-02-28T06:51:28.494Z,34.80
2023-02-28T06:53:57.151Z,31.47
2023-02-28T06:56:25.598Z,26.93
2023-02-28T06:58:54.281Z,25.97
2023-02-28T07:01:24.171Z,23.37
2023-02-28T07:03:53.614Z,25.63
2023-02-28T07:06:23.796Z,22.97
2023-02-28T07:08:56.213Z,25.67
2023-02-28T07:11:26.963Z,25.97
2023-02-28T07:13:56.246Z,68.37
2023-02-28T07:16:25.732Z,54.07
2023-02-28T07:18:56.246Z,34.60
2023-02-28T07:21:25.183Z,24.67
2023-02-28T07:23:55.129Z,24.63
2023-02-28T07:26:23.638Z,25.13
2023-02-28T07:28:52.309Z,24.10
2023-02-28T07:31:21.117Z,23.77
2023-02-28T07:33:49.666Z,21.27
2023-02-28T07:36:21.124Z,18.93
2023-02-28T07:38:51.372Z,22.90
2023-02-28T07:41:23.170Z,26.83
2023-02-28T07:43:51.961Z,20.63
2023-02-28T07:46:22.457Z,20.87
2023-02-28T07:48:51.059Z,16.00
2023-02-28T07:51:19.508Z,20.03
2023-02-28T07:53:48.124Z,16.40
2023-02-28T07:56:16.595Z,13.60
2023-02-28T07:58:46.528Z,13.80
2023-02-28T08:01:15.511Z,15.67
2023-02-28T08:03:44.104Z,13.93
2023-02-28T08:06:20.287Z,13.90
2023-02-28T08:08:49.235Z,11.33
2023-02-28T08:11:18.560Z,9.87
2023-02-28T08:13:49.736Z,11.53
2023-02-28T08:16:23.281Z,9.60
2023-02-28T08:18:52.520Z,10.37
2023-02-28T08:21:23.473Z,10.30
2023-02-28T08:23:53.599Z,8.87
2023-02-28T08:26:22.528Z,8.43
2023-02-28T08:28:52.620Z,9.67
2023-02-28T08:31:21.847Z,7.83
2023-02-28T08:33:52.269Z,10.03
2023-02-28T08:36:22.625Z,8.07
2023-02-28T08:38:51.172Z,10.83
2023-02-28T08:41:19.675Z,14.50
2023-02-28T08:43:48.143Z,13.40
2023-02-28T08:46:18.024Z,10.73
2023-02-28T08:48:47.061Z,14.43
2023-02-28T08:51:19.823Z,39.17
2023-02-28T08:53:50.632Z,15.63
2023-02-28T08:56:20.031Z,9.10
2023-02-28T08:58:49.532Z,9.17
2023-02-28T09:01:21.178Z,8.10
2023-02-28T09:03:51.275Z,12.97
2023-02-28T09:06:21.800Z,8.50
2023-02-28T09:08:50.655Z,10.03
2023-02-28T09:11:20.417Z,9.20
2023-02-28T09:13:49.304Z,9.87
2023-02-28T09:16:19.714Z,7.23
2023-02-28T09:18:48.272Z,8.30
2023-02-28T09:21:18.876Z,10.50
2023-02-28T09:23:49.234Z,10.57
2023-02-28T09:26:23.978Z,9.20
2023-02-28T09:28:53.942Z,10.07
2023-02-28T09:31:26.569Z,10.50
2023-02-28T09:33:57.487Z,8.43
2023-02-28T09:36:38.179Z,10.87
2023-02-28T09:39:13.809Z,11.70
2023-02-28T09:41:49.678Z,10.40
2023-02-28T09:44:24.353Z,11.67
2023-02-28T09:46:58.357Z,10.43
2023-02-28T09:49:31.275Z,9.97
2023-02-28T09:52:03.624Z,8.67
2023-02-28T09:54:35.008Z,14.00
2023-02-28T09:57:09.307Z,10.57
2023-02-28T09:59:56.831Z,10.23
2023-02-28T10:02:55.805Z,12.53
2023-02-28T10:05:28.439Z,10.43
2023-02-28T10:08:06.995Z,8.63
2023-02-28T10:10:41.934Z,10.93
2023-02-28T10:13:20.065Z,8.10
2023-02-28T10:15:51.361Z,7.53
2023-02-28T10:18:25.812Z,8.23
2023-02-28T10:20:56.865Z,8.80
2023-02-28T10:23:29.805Z,8.87
2023-02-28T10:26:01.966Z,6.33
2023-02-28T10:28:33.295Z,8.20
2023-02-28T10:31:02.084Z,6.00
2023-02-28T10:33:35.481Z,9.10
2023-02-28T10:36:05.088Z,6.67
2023-02-28T10:38:38.058Z,7.97
2023-02-28T10:41:09.015Z,6.70
2023-02-28T10:43:38.233Z,8.93
2023-02-28T10:46:16.146Z,13.43
2023-02-28T10:48:49.616Z,8.53
2023-02-28T10:51:20.964Z,8.30
2023-02-28T10:54:01.027Z,10.43
2023-02-28T10:56:32.024Z,7.23
2023-02-28T10:59:02.668Z,7.90
2023-02-28T11:01:40.641Z,8.17
2023-02-28T11:04:23.139Z,8.50
2023-02-28T11:06:59.981Z,7.33
2023-02-28T11:09:33.164Z,11.03
2023-02-28T11:12:03.118Z,8.10
2023-02-28T11:14:35.417Z,8.70
2023-02-28T11:17:17.456Z,9.20
2023-02-28T11:19:52.485Z,10.20
2023-02-28T11:22:24.312Z,7.27
2023-02-28T11:24:56.258Z,10.30
2023-02-28T11:27:42.720Z,7.83
2023-02-28T11:30:27.742Z,7.17
2023-02-28T11:32:56.579Z,7.23
2023-02-28T11:35:31.047Z,9.60
2023-02-28T11:38:00.722Z,8.73
2023-02-28T11:40:39.528Z,7.30
2023-02-28T11:43:21.429Z,8.83
2023-02-28T11:46:04.902Z,8.33
2023-02-28T11:48:43.003Z,7.03
2023-02-28T11:51:21.799Z,7.40
2023-02-28T11:54:06.405Z,6.57
2023-02-28T11:56:40.353Z,8.70
2023-02-28T11:59:33.314Z,10.13
2023-02-28T12:02:18.167Z,7.60
2023-02-28T12:04:58.095Z,7.93
2023-02-28T12:07:37.946Z,8.80
2023-02-28T12:10:19.712Z,8.20
2023-02-28T12:13:00.302Z,10.37
2023-02-28T12:15:51.526Z,9.63
2023-02-28T12:18:41.146Z,7.97
2023-02-28T12:21:17.866Z,10.13
2023-02-28T12:24:00.117Z,11.83
2023-02-28T12:26:39.165Z,10.87
2023-02-28T12:29:24.470Z,9.40
2023-02-28T12:31:56.250Z,9.03
2023-02-28T12:34:30.832Z,8.40
2023-02-28T12:37:03.819Z,12.30
2023-02-28T12:39:49.746Z,10.40
2023-02-28T12:42:26.592Z,14.10
2023-02-28T12:44:59.189Z,11.90
2023-02-28T12:47:28.793Z,12.30
2023-02-28T12:50:01.870Z,12.87
2023-02-28T12:52:38.549Z,16.27
2023-02-28T12:55:17.660Z,11.17
2023-02-28T12:57:53.320Z,16.37
2023-02-28T13:00:25.317Z,13.30
2023-02-28T13:03:16.202Z,12.50
2023-02-28T13:06:00.795Z,19.17
2023-02-28T13:09:07.185Z,12.43
2023-02-28T13:11:43.055Z,17.73
2023-02-28T13:14:24.607Z,24.90
2023-02-28T13:17:06.104Z,9.70
2023-02-28T13:19:37.231Z,12.80
2023-02-28T13:22:06.642Z,11.80
2023-02-28T13:24:47.709Z,13.60
2023-02-28T13:27:40.802Z,15.93
2023-02-28T13:30:57.080Z,15.93
2023-02-28T13:33:31.300Z,14.40
2023-02-28T13:36:25.316Z,15.43
2023-02-28T13:38:56.766Z,14.90
2023-02-28T13:41:44.965Z,11.43
2023-02-28T13:44:16.621Z,15.33
2023-02-28T13:47:30.260Z,14.70
2023-02-28T13:50:25.032Z,15.17
2023-02-28T13:53:16.839Z,15.83
2023-02-28T13:55:49.413Z,13.70
2023-02-28T13:58:38.342Z,13.70
2023-02-28T14:01:24.846Z,20.10
2023-02-28T14:04:06.529Z,14.03
2023-02-28T14:06:39.700Z,16.97
2023-02-28T14:09:20.700Z,16.73
2023-02-28T14:11:49.863Z,17.93
2023-02-28T14:14:52.138Z,16.03
2023-02-28T14:17:22.604Z,14.67
2023-02-28T14:19:51.482Z,16.07
2023-02-28T14:22:41.461Z,15.97
2023-02-28T14:25:26.421Z,18.67
2023-02-28T14:28:09.113Z,17.27
2023-02-28T14:31:00.344Z,19.90
2023-02-28T14:33:41.510Z,42.60
2023-02-28T14:36:22.909Z,19.77
2023-02-28T14:38:57.497Z,19.60
2023-02-28T14:41:36.603Z,16.83
2023-02-28T14:44:17.983Z,17.67
2023-02-28T14:46:48.470Z,19.53
2023-02-28T14:49:25.823Z,18.57
2023-02-28T14:52:06.184Z,31.07
2023-02-28T14:54:35.847Z,17.13
2023-02-28T14:57:07.336Z,13.00
2023-02-28T14:59:38.144Z,15.87
2023-02-28T15:02:21.355Z,18.53
2023-02-28T15:04:59.538Z,15.03
2023-02-28T15:07:33.271Z,16.07
2023-02-28T15:10:20.108Z,12.13
2023-02-28T15:12:57.531Z,14.47
2023-02-28T15:15:40.435Z,15.57
2023-02-28T15:18:13.347Z,13.97
2023-02-28T15:20:46.729Z,14.73
2023-02-28T15:23:16.967Z,14.97
2023-02-28T15:25:45.580Z,16.10
2023-02-28T15:28:18.578Z,13.97
2023-02-28T15:30:56.984Z,21.37
2023-02-28T15:33:27.776Z,21.03
2023-02-28T15:36:13.270Z,13.93
2023-02-28T15:38:41.982Z,16.97
2023-02-28T15:41:26.129Z,14.53
2023-02-28T15:44:19.201Z,13.97
2023-02-28T15:46:58.829Z,16.93
2023-02-28T15:49:28.097Z,17.97
2023-02-28T15:52:00.969Z,14.47
2023-02-28T15:54:32.089Z,17.30
2023-02-28T15:57:07.478Z,14.73
2023-02-28T15:59:35.988Z,20.97
2023-02-28T16:02:16.422Z,22.20
2023-02-28T16:05:06.478Z,23.40
2023-02-28T16:07:39.745Z,26.73
2023-02-28T16:10:09.814Z,25.60
2023-02-28T16:12:40.029Z,33.57
2023-02-28T16:15:10.667Z,22.00
2023-02-28T16:17:41.766Z,39.60
2023-02-28T16:20:16.500Z,35.77
2023-02-28T16:22:46.910Z,22.27
2023-02-28T16:25:17.152Z,17.60
2023-02-28T16:27:48.254Z,25.40
2023-02-28T16:30:22.594Z,25.60
2023-02-28T16:32:52.561Z,19.80
2023-02-28T16:35:21.853Z,20.67
2023-02-28T16:37:53.372Z,21.50
2023-02-28T16:40:24.334Z,21.23
2023-02-28T16:42:55.078Z,28.03
2023-02-28T16:45:29.191Z,34.53
2023-02-28T16:47:58.544Z,25.30
2023-02-28T16:50:28.750Z,22.50
2023-02-28T16:53:01.588Z,22.97
2023-02-28T16:55:30.593Z,28.30
2023-02-28T16:58:01.575Z,33.40
2023-02-28T17:00:33.171Z,30.70
2023-02-28T17:03:04.644Z,30.83
2023-02-28T17:05:39.701Z,34.10
2023-02-28T17:08:11.449Z,35.47
2023-02-28T17:10:41.006Z,37.23
2023-02-28T17:13:15.200Z,38.97
2023-02-28T17:15:44.427Z,44.67
2023-02-28T17:18:17.232Z,36.90
2023-02-28T17:20:45.917Z,36.37
2023-02-28T17:23:16.628Z,33.13
2023-02-28T17:25:57.621Z,26.13
2023-02-28T17:28:26.780Z,28.07
2023-02-28T17:30:55.438Z,30.23
2023-02-28T17:33:25.255Z,30.97
2023-02-28T17:35:56.834Z,35.70
2023-02-28T17:38:26.909Z,43.87
2023-02-28T17:40:58.538Z,78.03
2023-02-28T17:43:27.870Z,103.23
2023-02-28T17:45:56.725Z,111.33
2023-02-28T17:48:25.287Z,96.70
2023-02-28T17:50:53.866Z,81.50
2023-02-28T17:53:24.297Z,97.40
2023-02-28T17:55:55.566Z,75.23
2023-02-28T17:58:24.065Z,69.60
2023-02-28T18:00:55.035Z,56.90
2023-02-28T18:03:25.434Z,54.90
2023-02-28T18:05:54.030Z,37.67
2023-02-28T18:08:23.343Z,44.47
2023-02-28T18:10:51.884Z,43.90
2023-02-28T18:13:22.144Z,63.77
2023-02-28T18:15:50.932Z,92.67
2023-02-28T18:18:19.803Z,153.97
2023-02-28T18:20:49.515Z,116.27
2023-02-28T18:23:20.892Z,98.87
2023-02-28T18:25:50.101Z,97.57
2023-02-28T18:28:18.547Z,89.90
2023-02-28T18:30:48.721Z,80.53
2023-02-28T18:33:17.994Z,76.77
2023-02-28T18:35:46.590Z,66.03
2023-02-28T18:38:17.561Z,58.70
2023-02-28T18:40:54.230Z,56.37
2023-02-28T18:43:23.191Z,54.03
2023-02-28T18:45:53.556Z,45.33
2023-02-28T18:48:24.036Z,49.60
2023-02-28T18:50:53.439Z,47.00
2023-02-28T18:53:21.843Z,55.63
2023-02-28T18:55:50.310Z,57.00
2023-02-28T18:58:18.862Z,60.80
2023-02-28T19:00:49.885Z,60.27
2023-02-28T19:03:20.335Z,54.17
2023-02-28T19:05:50.720Z,50.87
2023-02-28T19:08:19.496Z,53.87
2023-02-28T19:10:48.084Z,65.37
2023-02-28T19:13:16.625Z,90.53
2023-02-28T19:15:45.401Z,69.37
2023-02-28T19:18:13.968Z,67.13
2023-02-28T19:20:44.081Z,58.33
2023-02-28T19:23:15.542Z,53.83
2023-02-28T19:25:44.528Z,56.23
2023-02-28T19:28:13.578Z,60.30
2023-02-28T19:30:42.462Z,53.30
2023-02-28T19:33:10.926Z,57.90
2023-02-28T19:35:42.016Z,64.93
2023-02-28T19:38:12.276Z,57.87
2023-02-28T19:40:40.878Z,60.77
2023-02-28T19:43:09.805Z,65.37
2023-02-28T19:45:41.962Z,61.33
2023-02-28T19:48:10.633Z,64.33
2023-02-28T19:50:41.713Z,57.47
2023-02-28T19:53:11.764Z,57.77
2023-02-28T19:55:40.932Z,57.93
2023-02-28T19:58:11.237Z,55.20
2023-02-28T20:00:39.676Z,55.63
2023-02-28T20:03:08.212Z,55.17
2023-02-28T20:05:37.918Z,51.70
2023-02-28T20:08:06.696Z,57.13
2023-02-28T20:10:36.741Z,57.60
2023-02-28T20:13:05.521Z,68.93
2023-02-28T20:15:34.268Z,68.00
2023-02-28T20:18:02.767Z,66.73
2023-02-28T20:20:31.409Z,86.67
2023-02-28T20:22:59.893Z,82.33
2023-02-28T20:25:28.383Z,81.87
2023-02-28T20:27:58.372Z,76.50
2023-02-28T20:30:26.935Z,70.37
2023-02-28T20:32:55.609Z,63.07
2023-02-28T20:35:25.073Z,61.43
2023-02-28T20:37:53.544Z,64.83
2023-02-28T20:40:22.351Z,69.60
2023-02-28T20:42:51.146Z,71.70
2023-02-28T20:45:21.020Z,69.07
2023-02-28T20:47:49.509Z,69.97
2023-02-28T20:50:19.459Z,64.83
2023-02-28T20:52:47.977Z,72.73
2023-02-28T20:55:16.548Z,72.90
2023-02-28T20:57:45.294Z,79.37
2023-02-28T21:00:20.768Z,73.63
2023-02-28T21:02:50.853Z,74.60
2023-02-28T21:05:19.440Z,68.23
2023-02-28T21:07:47.873Z,73.50
2023-02-28T21:10:16.613Z,85.10
2023-02-28T21:12:45.308Z,99.83
2023-02-28T21:15:13.909Z,102.00
2023-02-28T21:17:42.473Z,95.07
2023-02-28T21:20:22.289Z,95.37
2023-02-28T21:22:51.329Z,91.53
2023-02-28T21:25:20.376Z,92.23
2023-02-28T21:27:49.179Z,92.13
2023-02-28T21:30:17.981Z,89.23
2023-02-28T21:32:46.587Z,87.40
2023-02-28T21:35:16.710Z,97.30
2023-02-28T21:37:45.782Z,84.13
2023-02-28T21:40:15.254Z,80.13
2023-02-28T21:42:43.849Z,81.23
2023-02-28T21:45:12.912Z,71.33
2023-02-28T21:47:41.548Z,77.80
2023-02-28T21:50:11.897Z,85.00
2023-02-28T21:52:42.146Z,78.97
2023-02-28T21:55:11.452Z,74.83
2023-02-28T21:57:40.457Z,106.67
2023-02-28T22:00:11.996Z,174.00
2023-02-28T22:02:41.021Z,169.00
2023-02-28T22:05:10.282Z,154.67
2023-02-28T22:07:42.175Z,141.03
2023-02-28T22:10:13.125Z,155.60
2023-02-28T22:12:41.576Z,162.57
2023-02-28T22:15:10.571Z,146.40
2023-02-28T22:17:39.390Z,161.67
2023-02-28T22:20:08.834Z,176.60
2023-02-28T22:22:37.673Z,173.60
2023-02-28T22:25:07.405Z,216.43
2023-02-28T22:27:37.720Z,199.27
2023-02-28T22:30:07.710Z,204.20
2023-02-28T22:32:37.577Z,203.87
2023-02-28T22:35:06.926Z,211.77
2023-02-28T22:37:35.829Z,193.47
2023-02-28T22:40:04.960Z,186.60
2023-02-28T22:42:35.554Z,188.53
2023-02-28T22:45:05.921Z,191.60
2023-02-28T22:47:34.505Z,174.07
2023-02-28T22:50:03.113Z,175.23
2023-02-28T22:52:31.546Z,172.40
2023-02-28T22:54:59.978Z,170.73
2023-02-28T22:57:29.879Z,159.77
2023-02-28T22:59:58.340Z,147.53
2023-02-28T23:02:29.288Z,138.77
2023-02-28T23:04:57.886Z,129.97
2023-02-28T23:07:27.088Z,134.10
2023-02-28T23:09:55.682Z,116.67
2023-02-28T23:12:24.207Z,111.70
2023-02-28T23:14:52.657Z,108.57
2023-02-28T23:17:21.486Z,121.80
2023-02-28T23:19:52.061Z,122.40
2023-02-28T23:22:20.700Z,104.10
2023-02-28T23:24:49.358Z,108.87
2023-02-28T23:27:17.778Z,101.63
2023-02-28T23:29:46.313Z,104.93
2023-02-28T23:32:14.935Z,96.10
2023-02-28T23:34:43.553Z,100.03
2023-02-28T23:37:13.435Z,109.00
2023-02-28T23:39:41.920Z,109.80
2023-02-28T23:42:10.506Z,113.90
2023-02-28T23:44:38.933Z,108.67
2023-02-28T23:47:07.468Z,113.47
2023-02-28T23:49:36.438Z,93.10
2023-02-28T23:52:05.810Z,86.83
2023-02-28T23:54:35.708Z,86.07
2023-02-28T23:57:04.311Z,87.73
2023-02-28T23:59:32.879Z,84.73
